X  Close Metar Aviation Weather Data     KNPA Naval Air Station Pensacola Forrest Sherman Field
Temperature
73°F Temperature
50°F Dewpoint
44% Humidity



Wind
10 MPH
16 KM/H
4 M/S
9 KTS



40°
NE
Current Conditions

Partly Cloudy Partly Cloudy
Pressure 1014.22 (hPa) - 29.95 (inHg)
Visibility 10 (mile) - 16.1 (km)
Airport
Airport-code KNPA

Location: Naval Air Station Pensacola Forrest Sherman Field
Distance: 9 (mi)

Metar:
KNPA 301556Z 04009KT 10SM FEW080 23/10 A2995 RMK AO2 SLP144 T02330100

Time: 09-30-2022 10:56 CDT